Time;durP1;ratioP1;P1;durP2;ratioP2;P2;SDS_P1;SDS_P2;PMS_P1;PMS_P2;Temp;Humidity;BMP_temperature;BMP_pressure;BME280_temperature;BME280_humidity;BME280_pressure;Samples;Min_cycle;Max_cycle;Signal;HPM_P1;HPM_P2
2023/06/18 00:01:56;;;;;;;;;;;17.30;66.80;;;;;;5090773;28;20233;-70
2023/06/18 00:04:21;;;;;;;;;;;17.40;66.70;;;;;;5091031;28;19919;-70
2023/06/18 00:06:47;;;;;;;;;;;17.30;66.70;;;;;;5090961;28;19912;-70
2023/06/18 00:09:13;;;;;;;;;;;17.20;66.80;;;;;;5091442;28;19916;-69
2023/06/18 00:11:38;;;;;;;;;;;17.20;66.80;;;;;;5089579;28;19912;-70
2023/06/18 00:14:04;;;;;;;;;;;17.20;66.80;;;;;;5090695;28;19919;-70
2023/06/18 00:16:29;;;;;;;;;;;17.20;67.30;;;;;;5090573;28;19952;-70
2023/06/18 00:18:55;;;;;;;;;;;17.20;66.80;;;;;;5090420;28;19943;-69
2023/06/18 00:21:21;;;;;;;;;;;17.20;66.80;;;;;;5090416;28;19916;-69
2023/06/18 00:23:46;;;;;;;;;;;17.20;66.80;;;;;;5090555;28;19958;-70
2023/06/18 00:26:12;;;;;;;;;;;17.20;66.70;;;;;;5090467;28;19920;-70
2023/06/18 00:28:37;;;;;;;;;;;17.30;66.70;;;;;;5090527;28;19912;-70
2023/06/18 00:31:03;;;;;;;;;;;17.30;66.70;;;;;;5090229;28;20233;-70
2023/06/18 00:33:29;;;;;;;;;;;17.30;66.80;;;;;;5090232;28;19923;-70
2023/06/18 00:35:57;;;;;;;;;;;17.40;66.90;;;;;;5090069;28;19924;-70
2023/06/18 00:38:23;;;;;;;;;;;17.50;67.00;;;;;;5090582;28;20356;-69
2023/06/18 00:40:49;;;;;;;;;;;17.60;67.00;;;;;;5090092;28;19916;-70
2023/06/18 00:43:15;;;;;;;;;;;17.70;66.90;;;;;;5090111;28;20061;-69
2023/06/18 00:45:40;;;;;;;;;;;17.70;66.80;;;;;;5090134;28;20466;-70
2023/06/18 00:48:06;;;;;;;;;;;17.70;66.70;;;;;;5089955;28;20421;-69
2023/06/18 00:50:32;;;;;;;;;;;17.80;66.70;;;;;;5089894;28;20388;-70
2023/06/18 00:53:01;;;;;;;;;;;17.70;66.60;;;;;;5088758;28;20014;-70
2023/06/18 00:55:30;;;;;;;;;;;17.70;66.70;;;;;;5088465;28;19918;-70
2023/06/18 00:58:03;;;;;;;;;;;17.60;66.80;;;;;;5089874;28;20355;-70
2023/06/18 01:00:31;;;;;;;;;;;17.60;66.80;;;;;;5089804;28;19909;-70
2023/06/18 01:02:56;;;;;;;;;;;17.60;66.80;;;;;;5089660;28;19942;-70
2023/06/18 01:05:23;;;;;;;;;;;17.60;66.80;;;;;;5089745;28;19916;-69
2023/06/18 01:07:49;;;;;;;;;;;17.60;66.90;;;;;;5089264;28;20417;-69
2023/06/18 01:10:15;;;;;;;;;;;17.60;66.90;;;;;;5089390;28;19915;-70
2023/06/18 01:12:42;;;;;;;;;;;17.60;66.90;;;;;;5089906;28;20257;-70
2023/06/18 01:15:10;;;;;;;;;;;17.70;67.00;;;;;;5088053;28;19955;-69
2023/06/18 01:17:37;;;;;;;;;;;17.70;67.00;;;;;;5089249;28;20380;-69
2023/06/18 01:20:09;;;;;;;;;;;17.80;67.00;;;;;;5089335;28;19943;-70
2023/06/18 01:22:41;;;;;;;;;;;17.80;67.00;;;;;;5089410;28;20261;-70
2023/06/18 01:25:07;;;;;;;;;;;17.80;67.10;;;;;;5089324;28;19924;-70
2023/06/18 01:27:40;;;;;;;;;;;17.80;67.10;;;;;;5089334;28;19912;-70
2023/06/18 01:30:09;;;;;;;;;;;17.80;67.20;;;;;;5089294;28;19908;-70
2023/06/18 01:32:36;;;;;;;;;;;17.80;67.20;;;;;;5089125;28;19942;-70
2023/06/18 01:35:05;;;;;;;;;;;17.80;67.20;;;;;;5089552;28;19920;-70
2023/06/18 01:37:31;;;;;;;;;;;17.80;67.30;;;;;;5089046;28;19990;-70
2023/06/18 01:40:09;;;;;;;;;;;17.90;67.30;;;;;;5088937;28;19926;-70
2023/06/18 01:42:36;;;;;;;;;;;18.00;67.30;;;;;;5088929;28;19914;-70
2023/06/18 01:45:07;;;;;;;;;;;18.10;67.20;;;;;;5089020;28;19973;-70
2023/06/18 01:47:33;;;;;;;;;;;18.10;67.10;;;;;;5088299;28;20019;-70
2023/06/18 01:50:00;;;;;;;;;;;18.10;67.10;;;;;;5088711;28;20008;-70
2023/06/18 01:52:28;;;;;;;;;;;18.20;67.20;;;;;;5088759;28;19937;-70
2023/06/18 01:54:54;;;;;;;;;;;18.10;67.00;;;;;;5088669;28;19912;-70
2023/06/18 01:57:19;;;;;;;;;;;18.20;67.00;;;;;;5088701;28;19952;-70
2023/06/18 01:59:45;;;;;;;;;;;18.20;66.90;;;;;;5088441;28;19953;-69
2023/06/18 02:02:12;;;;;;;;;;;18.20;66.90;;;;;;5088039;28;20411;-70
2023/06/18 02:04:43;;;;;;;;;;;18.20;66.90;;;;;;5088114;28;20291;-70
2023/06/18 02:07:10;;;;;;;;;;;18.20;66.90;;;;;;5088325;28;19957;-70
2023/06/18 02:09:35;;;;;;;;;;;18.10;67.10;;;;;;5086918;28;20328;-70
2023/06/18 02:12:01;;;;;;;;;;;18.10;67.20;;;;;;5089052;28;19959;-70
2023/06/18 02:14:26;;;;;;;;;;;18.10;67.30;;;;;;5088786;28;19912;-70
2023/06/18 02:16:55;;;;;;;;;;;18.10;67.30;;;;;;5088236;28;19956;-69
2023/06/18 02:19:21;;;;;;;;;;;18.10;67.30;;;;;;5088260;28;20288;-69
2023/06/18 02:21:46;;;;;;;;;;;18.10;67.30;;;;;;5088199;28;19908;-70
2023/06/18 02:24:12;;;;;;;;;;;18.20;67.30;;;;;;5088208;28;19927;-70
2023/06/18 02:26:37;;;;;;;;;;;18.20;67.20;;;;;;5086866;28;19912;-70
2023/06/18 02:29:03;;;;;;;;;;;18.20;67.30;;;;;;5088005;28;19912;-70
2023/06/18 02:31:28;;;;;;;;;;;18.20;67.40;;;;;;5088195;28;20007;-70
2023/06/18 02:33:54;;;;;;;;;;;18.20;67.30;;;;;;5088079;28;19912;-70
2023/06/18 02:36:20;;;;;;;;;;;18.20;67.40;;;;;;5087962;28;19927;-70
2023/06/18 02:38:45;;;;;;;;;;;18.20;67.50;;;;;;5088036;28;20284;-70
2023/06/18 02:41:11;;;;;;;;;;;18.20;67.40;;;;;;5088021;28;19927;-70
2023/06/18 02:43:36;;;;;;;;;;;18.30;68.00;;;;;;5087895;28;20380;-70
2023/06/18 02:46:02;;;;;;;;;;;18.30;67.40;;;;;;5087961;28;20269;-70
2023/06/18 02:48:28;;;;;;;;;;;18.30;67.40;;;;;;5087876;28;19914;-70
2023/06/18 02:50:53;;;;;;;;;;;18.40;67.30;;;;;;5087885;28;19912;-69
2023/06/18 02:53:19;;;;;;;;;;;18.40;67.30;;;;;;5087923;28;20012;-70
2023/06/18 02:55:44;;;;;;;;;;;18.50;67.30;;;;;;5087760;28;19916;-70
2023/06/18 02:58:27;;;;;;;;;;;18.40;67.20;;;;;;5087916;28;19912;-70
2023/06/18 03:00:56;;;;;;;;;;;18.40;67.30;;;;;;5092079;28;19916;-70
2023/06/18 03:03:21;;;;;;;;;;;18.40;67.40;;;;;;5091848;28;20249;-70
2023/06/18 03:05:47;;;;;;;;;;;18.50;67.30;;;;;;5092005;28;19976;-70
2023/06/18 03:08:13;;;;;;;;;;;18.50;67.20;;;;;;5091996;28;19914;-70
2023/06/18 03:10:41;;;;;;;;;;;18.50;67.20;;;;;;5091772;28;20400;-70
2023/06/18 03:13:06;;;;;;;;;;;18.50;67.30;;;;;;5091878;28;19908;-70
2023/06/18 03:15:32;;;;;;;;;;;18.50;67.30;;;;;;5090546;28;19931;-70
2023/06/18 03:17:57;;;;;;;;;;;18.50;67.20;;;;;;5092106;28;19912;-69
2023/06/18 03:20:23;;;;;;;;;;;18.50;67.20;;;;;;5091659;28;19919;-70
2023/06/18 03:22:49;;;;;;;;;;;18.50;67.10;;;;;;5092054;28;20024;-70
2023/06/18 03:25:14;;;;;;;;;;;18.50;67.30;;;;;;5091605;28;20318;-70
2023/06/18 03:27:40;;;;;;;;;;;18.40;67.40;;;;;;5091621;28;19912;-70
2023/06/18 03:30:06;;;;;;;;;;;18.40;67.50;;;;;;5091472;28;19915;-70
2023/06/18 03:32:32;;;;;;;;;;;18.40;67.50;;;;;;5091540;28;19938;-70
2023/06/18 03:34:58;;;;;;;;;;;18.40;67.60;;;;;;5091359;28;20361;-70
2023/06/18 03:37:23;;;;;;;;;;;18.40;67.60;;;;;;5091456;28;19951;-70
2023/06/18 03:39:49;;;;;;;;;;;18.40;67.70;;;;;;5091319;28;20003;-70
2023/06/18 03:42:15;;;;;;;;;;;18.40;67.70;;;;;;5091408;28;20337;-70
2023/06/18 03:44:40;;;;;;;;;;;18.50;67.60;;;;;;5091165;28;19919;-70
2023/06/18 03:47:06;;;;;;;;;;;18.50;67.50;;;;;;5091125;28;20369;-70
2023/06/18 03:49:32;;;;;;;;;;;18.50;67.50;;;;;;5090969;28;20399;-70
2023/06/18 03:51:58;;;;;;;;;;;18.60;67.60;;;;;;5091163;28;19912;-70
2023/06/18 03:54:24;;;;;;;;;;;18.50;67.50;;;;;;5091063;28;19908;-70
2023/06/18 03:56:50;;;;;;;;;;;18.50;67.50;;;;;;5090985;28;19920;-70
2023/06/18 03:59:16;;;;;;;;;;;18.50;67.50;;;;;;5090899;28;19908;-70
2023/06/18 04:01:42;;;;;;;;;;;18.40;67.60;;;;;;5091127;28;19912;-70
2023/06/18 04:04:08;;;;;;;;;;;18.30;67.70;;;;;;5090690;28;19949;-70
2023/06/18 04:06:34;;;;;;;;;;;18.30;67.80;;;;;;5090824;28;19981;-70
2023/06/18 04:09:00;;;;;;;;;;;18.20;67.90;;;;;;5090673;28;20395;-70
2023/06/18 04:11:26;;;;;;;;;;;18.20;67.90;;;;;;5090194;28;19985;-70
2023/06/18 04:13:52;;;;;;;;;;;18.20;68.00;;;;;;5090653;28;19912;-69
2023/06/18 04:16:17;;;;;;;;;;;18.20;68.00;;;;;;5090483;28;19919;-70
2023/06/18 04:18:43;;;;;;;;;;;18.20;68.00;;;;;;5090670;28;19934;-70
2023/06/18 04:21:08;;;;;;;;;;;18.20;67.80;;;;;;5090572;28;19942;-70
2023/06/18 04:23:34;;;;;;;;;;;18.30;67.80;;;;;;5090568;28;19913;-70
2023/06/18 04:26:00;;;;;;;;;;;18.30;67.70;;;;;;5090439;28;19922;-70
2023/06/18 04:28:25;;;;;;;;;;;18.40;67.70;;;;;;5090588;28;19973;-70
2023/06/18 04:30:51;;;;;;;;;;;18.40;67.70;;;;;;5090582;28;20233;-70
2023/06/18 04:33:16;;;;;;;;;;;18.30;67.70;;;;;;5090353;28;19943;-70
2023/06/18 04:35:42;;;;;;;;;;;18.40;67.90;;;;;;5090220;28;20331;-70
2023/06/18 04:38:09;;;;;;;;;;;18.40;67.90;;;;;;5090261;28;19920;-70
2023/06/18 04:40:35;;;;;;;;;;;18.40;67.90;;;;;;5088876;28;20269;-70
2023/06/18 04:43:01;;;;;;;;;;;18.40;67.90;;;;;;5088990;28;19938;-70
2023/06/18 04:45:27;;;;;;;;;;;18.40;68.00;;;;;;5090266;28;19908;-70
2023/06/18 04:47:52;;;;;;;;;;;18.40;68.00;;;;;;5089978;28;20375;-70
2023/06/18 04:50:18;;;;;;;;;;;18.40;68.00;;;;;;5089853;28;19912;-70
2023/06/18 04:52:44;;;;;;;;;;;18.50;68.00;;;;;;5090003;28;19950;-70
2023/06/18 04:55:10;;;;;;;;;;;18.50;68.00;;;;;;5089819;28;19917;-70
2023/06/18 04:57:35;;;;;;;;;;;18.50;67.90;;;;;;5089934;28;19935;-70
2023/06/18 05:00:04;;;;;;;;;;;18.60;67.90;;;;;;5089932;28;20369;-70
2023/06/18 05:02:29;;;;;;;;;;;18.60;67.80;;;;;;5089578;28;19931;-70
2023/06/18 05:04:55;;;;;;;;;;;18.60;67.80;;;;;;5089811;28;20284;-70
2023/06/18 05:07:20;;;;;;;;;;;18.60;67.90;;;;;;5089691;28;19944;-70
2023/06/18 05:09:46;;;;;;;;;;;18.60;68.00;;;;;;5087821;28;19918;-70
2023/06/18 05:12:11;;;;;;;;;;;18.60;67.90;;;;;;5088958;28;20084;-70
2023/06/18 05:14:37;;;;;;;;;;;18.70;67.90;;;;;;5089064;28;19995;-70
2023/06/18 05:17:02;;;;;;;;;;;18.70;68.00;;;;;;5088854;28;19966;-69
2023/06/18 05:19:28;;;;;;;;;;;18.70;67.90;;;;;;5089180;28;19916;-70
2023/06/18 05:21:54;;;;;;;;;;;18.70;67.90;;;;;;5088234;28;19908;-70
2023/06/18 05:24:19;;;;;;;;;;;18.70;67.80;;;;;;5088956;28;19912;-70
2023/06/18 05:26:45;;;;;;;;;;;18.80;68.00;;;;;;5089415;28;19919;-70
2023/06/18 05:29:10;;;;;;;;;;;18.80;68.00;;;;;;5089262;28;20406;-70
2023/06/18 05:31:36;;;;;;;;;;;18.90;68.00;;;;;;5089288;28;19916;-70
2023/06/18 05:34:01;;;;;;;;;;;18.90;67.90;;;;;;5089220;28;20059;-70
2023/06/18 05:36:27;;;;;;;;;;;18.90;67.70;;;;;;5089072;28;19924;-70
2023/06/18 05:38:59;;;;;;;;;;;18.90;67.70;;;;;;5088910;28;19920;-70
2023/06/18 05:41:25;;;;;;;;;;;18.90;67.70;;;;;;5089071;28;19999;-70
2023/06/18 05:43:51;;;;;;;;;;;18.80;67.90;;;;;;5089033;28;19931;-70
2023/06/18 05:46:17;;;;;;;;;;;18.70;68.00;;;;;;5087643;28;20372;-70
2023/06/18 05:48:42;;;;;;;;;;;18.60;68.20;;;;;;5088932;28;19965;-70
2023/06/18 05:51:08;;;;;;;;;;;18.60;68.30;;;;;;5088595;28;19922;-70
2023/06/18 05:53:34;;;;;;;;;;;18.60;68.30;;;;;;5088725;28;19912;-70
2023/06/18 05:55:59;;;;;;;;;;;18.60;68.30;;;;;;5088720;28;19967;-70
2023/06/18 05:58:25;;;;;;;;;;;18.70;68.40;;;;;;5087502;28;19912;-70
2023/06/18 06:00:51;;;;;;;;;;;18.70;68.30;;;;;;5088600;28;19908;-70
2023/06/18 06:03:17;;;;;;;;;;;18.70;68.70;;;;;;5088498;28;19931;-70
2023/06/18 06:05:42;;;;;;;;;;;18.70;68.30;;;;;;5088640;28;20277;-70
2023/06/18 06:08:08;;;;;;;;;;;18.70;68.30;;;;;;5089067;28;19916;-70
2023/06/18 06:10:34;;;;;;;;;;;18.70;68.40;;;;;;5088505;28;19916;-70
2023/06/18 06:13:00;;;;;;;;;;;18.70;68.40;;;;;;5087238;28;20421;-70
2023/06/18 06:15:26;;;;;;;;;;;18.70;68.30;;;;;;5088469;28;19916;-69
2023/06/18 06:17:52;;;;;;;;;;;18.70;68.40;;;;;;5088360;28;19920;-70
2023/06/18 06:20:17;;;;;;;;;;;18.80;68.50;;;;;;5088272;28;19919;-70
2023/06/18 06:22:43;;;;;;;;;;;18.70;68.40;;;;;;5088176;28;19992;-70
2023/06/18 06:25:08;;;;;;;;;;;18.80;68.40;;;;;;5088331;28;19922;-70
2023/06/18 06:27:34;;;;;;;;;;;18.90;68.40;;;;;;5088225;28;19938;-70
2023/06/18 06:30:01;;;;;;;;;;;18.90;68.40;;;;;;5088139;28;19912;-70
2023/06/18 06:32:27;;;;;;;;;;;19.00;68.40;;;;;;5088129;28;20337;-70
2023/06/18 06:34:53;;;;;;;;;;;19.00;68.40;;;;;;5088140;28;20443;-70
2023/06/18 06:37:18;;;;;;;;;;;19.10;68.40;;;;;;5086767;28;19916;-70
2023/06/18 06:39:44;;;;;;;;;;;19.30;68.40;;;;;;5087968;28;20576;-70
2023/06/18 06:42:10;;;;;;;;;;;19.30;68.30;;;;;;5088402;28;19966;-70
2023/06/18 06:44:36;;;;;;;;;;;19.40;68.30;;;;;;5087949;28;19912;-70
2023/06/18 06:47:02;;;;;;;;;;;19.40;68.30;;;;;;5088034;28;20400;-70
2023/06/18 06:49:27;;;;;;;;;;;19.50;68.20;;;;;;5087971;28;19910;-70
2023/06/18 06:51:53;;;;;;;;;;;19.60;68.10;;;;;;5087800;28;19916;-70
2023/06/18 06:54:19;;;;;;;;;;;19.60;68.10;;;;;;5086389;28;19917;-70
2023/06/18 06:56:45;;;;;;;;;;;19.60;68.10;;;;;;5087560;28;19936;-70
2023/06/18 06:59:10;;;;;;;;;;;19.60;68.10;;;;;;5086242;28;20076;-70
2023/06/18 07:01:36;;;;;;;;;;;19.50;68.10;;;;;;5087808;28;19923;-70
2023/06/18 07:04:01;;;;;;;;;;;19.50;68.20;;;;;;5087680;28;19928;-70
2023/06/18 07:06:27;;;;;;;;;;;19.40;68.20;;;;;;5087857;28;20027;-70
2023/06/18 07:08:53;;;;;;;;;;;19.30;68.30;;;;;;5087670;28;19920;-70
2023/06/18 07:11:18;;;;;;;;;;;19.30;68.50;;;;;;5087736;28;19913;-70
2023/06/18 07:13:44;;;;;;;;;;;19.30;68.50;;;;;;5086326;28;19970;-70
2023/06/18 07:16:09;;;;;;;;;;;19.30;68.50;;;;;;5086451;28;19951;-70
2023/06/18 07:18:35;;;;;;;;;;;19.20;68.50;;;;;;5088166;28;19970;-70
2023/06/18 07:21:00;;;;;;;;;;;19.20;68.60;;;;;;5087580;28;19931;-70
2023/06/18 07:23:26;;;;;;;;;;;19.30;68.70;;;;;;5086268;28;19919;-70
2023/06/18 07:25:52;;;;;;;;;;;19.30;68.60;;;;;;5087608;28;19933;-70
2023/06/18 07:28:17;;;;;;;;;;;19.30;68.60;;;;;;5087720;28;20311;-70
2023/06/18 07:30:43;;;;;;;;;;;19.30;68.70;;;;;;5087137;28;19922;-70
2023/06/18 07:33:08;;;;;;;;;;;19.40;68.80;;;;;;5086108;28;20301;-70
2023/06/18 07:35:34;;;;;;;;;;;19.40;68.80;;;;;;5087147;28;19912;-70
2023/06/18 07:38:00;;;;;;;;;;;19.50;68.80;;;;;;5087459;28;19913;-70
2023/06/18 07:40:28;;;;;;;;;;;19.70;68.80;;;;;;5087864;28;19912;-70
2023/06/18 07:42:53;;;;;;;;;;;19.90;68.90;;;;;;5087360;28;19912;-70
2023/06/18 07:45:19;;;;;;;;;;;20.10;68.90;;;;;;5088605;28;20407;-70
2023/06/18 07:47:45;;;;;;;;;;;20.30;68.80;;;;;;5091028;28;19931;-70
2023/06/18 07:50:10;;;;;;;;;;;20.70;69.40;;;;;;5091430;28;19919;-70
2023/06/18 07:52:36;;;;;;;;;;;21.80;69.60;;;;;;5090959;28;19982;-70
2023/06/18 07:55:01;;;;;;;;;;;23.00;68.70;;;;;;5090953;28;20119;-70
2023/06/18 07:57:27;;;;;;;;;;;23.40;67.60;;;;;;5090999;28;19919;-70
2023/06/18 07:59:53;;;;;;;;;;;23.40;67.20;;;;;;5090764;28;19912;-70
2023/06/18 08:02:18;;;;;;;;;;;23.30;67.10;;;;;;5090318;28;19932;-72
2023/06/18 08:04:44;;;;;;;;;;;23.10;67.10;;;;;;5090704;28;19990;-71
2023/06/18 08:07:10;;;;;;;;;;;23.30;68.20;;;;;;5090805;28;19920;-72
2023/06/18 08:09:35;;;;;;;;;;;24.10;68.60;;;;;;5090389;28;19947;-70
2023/06/18 08:12:01;;;;;;;;;;;25.20;68.90;;;;;;5090597;28;20373;-71
2023/06/18 08:14:27;;;;;;;;;;;26.30;68.20;;;;;;5072401;28;20389;-70
2023/06/18 08:16:52;;;;;;;;;;;27.40;68.40;;;;;;5090369;28;19989;-71
2023/06/18 08:19:18;;;;;;;;;;;28.40;67.70;;;;;;5090380;28;20357;-71
2023/06/18 08:21:44;;;;;;;;;;;28.30;67.80;;;;;;5090187;28;19923;-70
2023/06/18 08:24:09;;;;;;;;;;;28.80;67.80;;;;;;5089756;28;19965;-71
2023/06/18 08:26:35;;;;;;;;;;;29.00;67.40;;;;;;5090037;28;19913;-71
2023/06/18 08:29:00;;;;;;;;;;;28.50;67.00;;;;;;5090009;28;19923;-71
2023/06/18 08:31:26;;;;;;;;;;;27.80;66.90;;;;;;5089817;28;19913;-70
2023/06/18 08:33:51;;;;;;;;;;;27.00;67.30;;;;;;5090045;28;19912;-71
2023/06/18 08:36:21;;;;;;;;;;;26.30;67.80;;;;;;5089706;28;20163;-71
2023/06/18 08:38:46;;;;;;;;;;;25.80;68.10;;;;;;5089716;28;20418;-70
2023/06/18 08:41:12;;;;;;;;;;;25.30;68.30;;;;;;5089995;28;19920;-70
2023/06/18 08:43:38;;;;;;;;;;;25.00;68.60;;;;;;5090186;28;19953;-70
2023/06/18 08:46:08;;;;;;;;;;;24.80;68.70;;;;;;5089791;28;20411;-70
2023/06/18 08:48:36;;;;;;;;;;;24.80;68.80;;;;;;5089577;28;20001;-70
2023/06/18 08:51:05;;;;;;;;;;;25.10;69.60;;;;;;5089495;28;20252;-71
2023/06/18 08:53:39;;;;;;;;;;;25.60;69.00;;;;;;5089841;28;19919;-70
2023/06/18 08:56:06;;;;;;;;;;;25.90;69.00;;;;;;5089391;28;19916;-71
2023/06/18 08:58:33;;;;;;;;;;;26.80;69.90;;;;;;5089659;28;19912;-71
2023/06/18 09:01:00;;;;;;;;;;;28.00;70.00;;;;;;5089576;28;19995;-70
2023/06/18 09:03:26;;;;;;;;;;;29.00;69.50;;;;;;5089167;28;19924;-71
2023/06/18 09:05:52;;;;;;;;;;;29.00;68.70;;;;;;5089424;28;19919;-71
2023/06/18 09:08:19;;;;;;;;;;;28.90;68.50;;;;;;5089276;28;20261;-71
2023/06/18 09:10:44;;;;;;;;;;;28.90;68.60;;;;;;5089317;28;19916;-71
2023/06/18 09:13:10;;;;;;;;;;;29.40;69.30;;;;;;5089024;28;19938;-71
2023/06/18 09:15:35;;;;;;;;;;;30.30;69.20;;;;;;5087402;28;19916;-71
2023/06/18 09:18:02;;;;;;;;;;;30.40;68.00;;;;;;5089287;28;19912;-71
2023/06/18 09:20:27;;;;;;;;;;;30.20;67.90;;;;;;5088964;28;19973;-71
2023/06/18 09:22:53;;;;;;;;;;;29.80;67.60;;;;;;5088973;28;20380;-71
2023/06/18 09:25:22;;;;;;;;;;;29.40;68.00;;;;;;5089113;28;20253;-71
2023/06/18 09:27:48;;;;;;;;;;;29.40;68.80;;;;;;5088876;28;19912;-70
2023/06/18 09:30:20;;;;;;;;;;;29.90;69.30;;;;;;5088664;28;19908;-70
2023/06/18 09:32:46;;;;;;;;;;;30.70;69.50;;;;;;5088713;28;20147;-70
2023/06/18 09:35:15;;;;;;;;;;;31.50;69.80;;;;;;5088377;28;20465;-71
2023/06/18 09:37:41;;;;;;;;;;;32.00;69.10;;;;;;5088681;28;19912;-71
2023/06/18 09:40:07;;;;;;;;;;;31.80;68.30;;;;;;5088595;28;20376;-70
2023/06/18 09:42:32;;;;;;;;;;;31.20;68.40;;;;;;5088443;28;19916;-71
2023/06/18 09:44:59;;;;;;;;;;;30.70;69.10;;;;;;5088216;28;20015;-71
2023/06/18 09:47:24;;;;;;;;;;;30.80;69.60;;;;;;5088016;28;19922;-71
2023/06/18 09:49:50;;;;;;;;;;;30.90;69.40;;;;;;5088346;28;20375;-71
2023/06/18 09:52:16;;;;;;;;;;;30.80;69.50;;;;;;5088398;28;19908;-71
2023/06/18 09:54:42;;;;;;;;;;;30.80;69.60;;;;;;5088200;28;20261;-71
2023/06/18 09:57:09;;;;;;;;;;;30.90;69.60;;;;;;5087613;28;19919;-70
2023/06/18 09:59:35;;;;;;;;;;;31.20;69.70;;;;;;5086107;28;19908;-71
2023/06/18 10:02:00;;;;;;;;;;;31.60;69.70;;;;;;5087566;28;19961;-71
2023/06/18 10:04:26;;;;;;;;;;;32.30;70.10;;;;;;5088155;28;19955;-71
2023/06/18 10:06:58;;;;;;;;;;;33.30;70.00;;;;;;5088376;28;19918;-69
2023/06/18 10:09:27;;;;;;;;;;;33.50;69.30;;;;;;5088062;28;20403;-70
2023/06/18 10:11:54;;;;;;;;;;;33.30;69.10;;;;;;5088463;28;19922;-70
2023/06/18 10:14:22;;;;;;;;;;;33.40;69.30;;;;;;5087822;28;19972;-70
2023/06/18 10:16:50;;;;;;;;;;;34.00;69.50;;;;;;5087563;28;19912;-70
2023/06/18 10:19:22;;;;;;;;;;;34.30;69.60;;;;;;5087921;28;19908;-70
2023/06/18 10:21:57;;;;;;;;;;;34.50;69.30;;;;;;5087774;28;19915;-70
2023/06/18 10:24:37;;;;;;;;;;;34.80;69.20;;;;;;5087660;28;19912;-70
2023/06/18 10:27:04;;;;;;;;;;;34.50;69.10;;;;;;5087304;28;20357;-70
2023/06/18 10:29:31;;;;;;;;;;;33.70;68.60;;;;;;5087549;28;19959;-70
2023/06/18 10:31:57;;;;;;;;;;;32.60;68.40;;;;;;5087475;28;19947;-70
2023/06/18 10:34:23;;;;;;;;;;;31.40;68.80;;;;;;5087670;28;20383;-69
2023/06/18 10:36:49;;;;;;;;;;;30.40;69.30;;;;;;5086981;28;19963;-70
2023/06/18 10:39:15;;;;;;;;;;;29.90;70.60;;;;;;5087430;28;19951;-70
2023/06/18 10:41:44;;;;;;;;;;;29.70;70.40;;;;;;5087328;28;19913;-69
2023/06/18 10:44:09;;;;;;;;;;;29.50;70.10;;;;;;5086914;28;20237;-69
2023/06/18 10:46:35;;;;;;;;;;;29.40;70.10;;;;;;5087132;28;19968;-69
2023/06/18 10:49:27;;;;;;;;;;;29.40;70.30;;;;;;5087360;28;19939;-69
2023/06/18 10:52:14;;;;;;;;;;;29.00;69.80;;;;;;5084931;28;19916;-69
2023/06/18 10:54:40;;;;;;;;;;;28.30;69.70;;;;;;5087145;28;19908;-69
2023/06/18 10:57:08;;;;;;;;;;;27.80;69.90;;;;;;5087018;28;19916;-69
2023/06/18 10:59:41;;;;;;;;;;;27.50;69.90;;;;;;5087174;28;19908;-68
2023/06/18 11:02:06;;;;;;;;;;;27.30;69.60;;;;;;5086553;28;19943;-75
2023/06/18 11:04:33;;;;;;;;;;;27.00;69.20;;;;;;5087330;28;19920;-75
2023/06/18 11:07:17;;;;;;;;;;;26.80;69.20;;;;;;5087013;28;19981;-76
2023/06/18 11:09:46;;;;;;;;;;;26.50;69.20;;;;;;5086714;28;19943;-75
2023/06/18 11:12:22;;;;;;;;;;;26.30;69.50;;;;;;5086792;28;20376;-75
2023/06/18 11:15:06;;;;;;;;;;;26.20;69.60;;;;;;5086858;28;19918;-75
2023/06/18 11:17:32;;;;;;;;;;;26.10;69.50;;;;;;5086781;28;20224;-75
2023/06/18 11:19:58;;;;;;;;;;;26.10;69.50;;;;;;5087475;28;19934;-76
2023/06/18 11:22:24;;;;;;;;;;;26.00;69.60;;;;;;5091094;28;19912;-75
2023/06/18 11:24:51;;;;;;;;;;;25.80;69.40;;;;;;5090968;28;19908;-76
2023/06/18 11:27:18;;;;;;;;;;;25.60;69.40;;;;;;5091428;28;20043;-75
2023/06/18 11:29:44;;;;;;;;;;;25.40;69.50;;;;;;5091171;28;19915;-75
2023/06/18 11:32:13;;;;;;;;;;;25.20;69.40;;;;;;5089291;28;19912;-75
2023/06/18 11:34:42;;;;;;;;;;;25.10;69.50;;;;;;5091049;28;19991;-75
2023/06/18 11:37:09;;;;;;;;;;;25.00;69.30;;;;;;5090462;28;19919;-77
2023/06/18 11:39:35;;;;;;;;;;;24.90;69.20;;;;;;5090387;28;20338;-76
2023/06/18 11:42:30;;;;;;;;;;;24.80;68.90;;;;;;5090789;28;19969;-76
2023/06/18 11:44:58;;;;;;;;;;;24.70;68.70;;;;;;5081552;28;20002;-77
2023/06/18 11:47:23;;;;;;;;;;;24.50;68.30;;;;;;5090542;28;19908;-76
2023/06/18 11:49:50;;;;;;;;;;;24.00;68.30;;;;;;5090550;28;19922;-77
2023/06/18 11:52:17;;;;;;;;;;;23.70;68.80;;;;;;5090394;28;19912;-77
2023/06/18 11:54:43;;;;;;;;;;;23.60;69.00;;;;;;5089820;28;19923;-77
2023/06/18 11:57:10;;;;;;;;;;;23.80;69.30;;;;;;5090069;28;19923;-77
2023/06/18 11:59:36;;;;;;;;;;;24.40;69.80;;;;;;5089061;28;20368;-77
2023/06/18 12:02:11;;;;;;;;;;;25.10;69.50;;;;;;5089840;28;19915;-76
2023/06/18 12:04:37;;;;;;;;;;;25.70;69.70;;;;;;5089378;28;19977;-76
2023/06/18 12:07:03;;;;;;;;;;;26.20;69.60;;;;;;5090013;28;19915;-76
2023/06/18 12:09:33;;;;;;;;;;;26.30;68.90;;;;;;5089999;28;19916;-76
2023/06/18 12:12:17;;;;;;;;;;;26.20;68.70;;;;;;5090138;28;20279;-75
2023/06/18 12:14:45;;;;;;;;;;;26.10;68.80;;;;;;5089597;28;19912;-76
2023/06/18 12:17:24;;;;;;;;;;;26.30;69.20;;;;;;5089989;28;19954;-76
2023/06/18 12:19:54;;;;;;;;;;;26.70;69.00;;;;;;5089743;28;19912;-76
2023/06/18 12:22:19;;;;;;;;;;;26.70;68.80;;;;;;5089901;28;19915;-76
2023/06/18 12:24:45;;;;;;;;;;;26.60;68.60;;;;;;5089365;28;20075;-76
2023/06/18 12:27:12;;;;;;;;;;;26.50;68.60;;;;;;5089873;28;19988;-76
2023/06/18 12:29:39;;;;;;;;;;;26.50;68.70;;;;;;5089662;28;19912;-76
2023/06/18 12:32:05;;;;;;;;;;;26.30;68.30;;;;;;5089532;28;19920;-75
2023/06/18 12:34:35;;;;;;;;;;;26.10;68.50;;;;;;5089643;28;19946;-75
2023/06/18 12:37:01;;;;;;;;;;;26.10;68.70;;;;;;5089657;28;19928;-76
2023/06/18 12:39:26;;;;;;;;;;;26.10;68.50;;;;;;5089652;28;20038;-76
2023/06/18 12:41:52;;;;;;;;;;;26.00;68.40;;;;;;5089803;28;20172;-75
2023/06/18 12:44:18;;;;;;;;;;;25.90;68.80;;;;;;5089534;28;19913;-76
2023/06/18 12:46:44;;;;;;;;;;;26.20;69.90;;;;;;5089288;28;19908;-76
2023/06/18 12:49:14;;;;;;;;;;;27.10;70.50;;;;;;5087851;28;20369;-76
2023/06/18 12:51:43;;;;;;;;;;;27.90;70.40;;;;;;5089336;28;19915;-76
2023/06/18 12:54:15;;;;;;;;;;;28.70;70.30;;;;;;5087611;28;19954;-76
2023/06/18 12:56:48;;;;;;;;;;;29.30;69.50;;;;;;5089215;28;19981;-76
2023/06/18 12:59:18;;;;;;;;;;;29.20;69.00;;;;;;5089202;28;19912;-76
2023/06/18 13:01:44;;;;;;;;;;;28.90;68.60;;;;;;5087423;28;19944;-76
2023/06/18 13:04:10;;;;;;;;;;;28.50;68.10;;;;;;5088961;28;19933;-76
2023/06/18 13:06:36;;;;;;;;;;;28.00;68.40;;;;;;5089140;28;20460;-76
2023/06/18 13:09:04;;;;;;;;;;;27.80;69.30;;;;;;5089503;28;19908;-76
2023/06/18 13:11:29;;;;;;;;;;;28.00;70.10;;;;;;5089560;28;20323;-76
2023/06/18 13:13:55;;;;;;;;;;;28.80;70.60;;;;;;5089517;28;20107;-76
2023/06/18 13:16:21;;;;;;;;;;;29.50;70.30;;;;;;5088642;28;19947;-76
2023/06/18 13:18:46;;;;;;;;;;;29.80;69.40;;;;;;5088475;28;20338;-76
2023/06/18 13:21:12;;;;;;;;;;;29.80;68.90;;;;;;5088499;28;20244;-76
2023/06/18 13:23:38;;;;;;;;;;;29.70;68.70;;;;;;5086453;28;19913;-76
2023/06/18 13:26:03;;;;;;;;;;;29.30;68.40;;;;;;5088053;28;19950;-76
2023/06/18 13:28:29;;;;;;;;;;;29.00;68.50;;;;;;5088001;28;19919;-76
2023/06/18 13:30:57;;;;;;;;;;;28.80;68.50;;;;;;5088150;28;20344;-76
2023/06/18 13:33:23;;;;;;;;;;;28.40;68.40;;;;;;5088228;28;19917;-76
2023/06/18 13:35:48;;;;;;;;;;;28.20;68.70;;;;;;5086193;28;19989;-76
2023/06/18 13:38:14;;;;;;;;;;;27.90;68.80;;;;;;5087846;28;20368;-76
2023/06/18 13:40:40;;;;;;;;;;;27.60;68.50;;;;;;5087557;28;19916;-71
2023/06/18 13:43:05;;;;;;;;;;;27.40;68.60;;;;;;5085811;28;20383;-76
2023/06/18 13:45:31;;;;;;;;;;;27.10;68.70;;;;;;5087714;28;20004;-76
2023/06/18 13:47:58;;;;;;;;;;;26.90;68.50;;;;;;5088166;28;19977;-76
2023/06/18 13:50:24;;;;;;;;;;;26.70;68.60;;;;;;5087855;28;19908;-76
2023/06/18 13:52:49;;;;;;;;;;;26.60;68.70;;;;;;5088017;28;19912;-76
2023/06/18 13:55:15;;;;;;;;;;;26.50;68.70;;;;;;5088537;28;19965;-75
2023/06/18 13:57:40;;;;;;;;;;;26.60;68.60;;;;;;5087382;28;20319;-76
2023/06/18 14:00:07;;;;;;;;;;;26.50;68.30;;;;;;5087471;28;19915;-76
2023/06/18 14:02:33;;;;;;;;;;;26.40;68.20;;;;;;5087625;28;19931;-76
2023/06/18 14:04:59;;;;;;;;;;;26.30;68.30;;;;;;5087428;28;19919;-76
2023/06/18 14:07:25;;;;;;;;;;;26.40;68.50;;;;;;5087266;28;19916;-76
2023/06/18 14:09:50;;;;;;;;;;;26.40;68.40;;;;;;5088109;28;20781;-75
2023/06/18 14:12:16;;;;;;;;;;;26.50;68.40;;;;;;5087780;28;19923;-76
2023/06/18 14:14:42;;;;;;;;;;;26.60;68.30;;;;;;5087654;28;19919;-76